sensor_id;sensor_type;location;lat;lon;timestamp;pressure;altitude;pressure_sealevel;temperature;humidity
3917;BME280;1973;50.518;7.318;2024-01-30T00:00:45;102189.03;;;7.09;100.00
3917;BME280;1973;50.518;7.318;2024-01-30T00:03:11;102195.84;;;7.05;100.00
3917;BME280;1973;50.518;7.318;2024-01-30T00:05:38;102191.69;;;7.01;100.00
3917;BME280;1973;50.518;7.318;2024-01-30T00:08:05;102183.81;;;6.98;100.00
3917;BME280;1973;50.518;7.318;2024-01-30T00:10:32;102183.25;;;6.95;100.00
3917;BME280;1973;50.518;7.318;2024-01-30T00:12:58;102179.13;;;6.91;100.00
3917;BME280;1973;50.518;7.318;2024-01-30T00:15:25;102182.31;;;6.86;100.00
3917;BME280;1973;50.518;7.318;2024-01-30T00:17:52;102182.63;;;6.83;100.00
3917;BME280;1973;50.518;7.318;2024-01-30T00:20:20;102186.69;;;6.79;100.00
3917;BME280;1973;50.518;7.318;2024-01-30T00:22:47;102186.31;;;6.74;100.00
3917;BME280;1973;50.518;7.318;2024-01-30T00:25:13;102187.47;;;6.71;100.00
3917;BME280;1973;50.518;7.318;2024-01-30T00:27:41;102191.38;;;6.69;100.00
3917;BME280;1973;50.518;7.318;2024-01-30T00:30:08;102186.22;;;6.66;100.00
3917;BME280;1973;50.518;7.318;2024-01-30T00:32:35;102177.31;;;6.64;100.00
3917;BME280;1973;50.518;7.318;2024-01-30T00:35:02;102173.16;;;6.60;100.00
3917;BME280;1973;50.518;7.318;2024-01-30T00:37:28;102169.44;;;6.61;100.00
3917;BME280;1973;50.518;7.318;2024-01-30T00:39:55;102178.97;;;6.57;100.00
3917;BME280;1973;50.518;7.318;2024-01-30T00:42:22;102178.41;;;6.53;100.00
3917;BME280;1973;50.518;7.318;2024-01-30T00:44:50;102178.72;;;6.50;100.00
3917;BME280;1973;50.518;7.318;2024-01-30T00:47:17;102174.41;;;6.48;100.00
3917;BME280;1973;50.518;7.318;2024-01-30T00:49:43;102190.13;;;6.46;100.00
3917;BME280;1973;50.518;7.318;2024-01-30T00:52:10;102183.06;;;6.43;100.00
3917;BME280;1973;50.518;7.318;2024-01-30T00:54:37;102180.66;;;6.40;100.00
3917;BME280;1973;50.518;7.318;2024-01-30T00:57:04;102174.16;;;6.41;100.00
3917;BME280;1973;50.518;7.318;2024-01-30T00:59:30;102168.56;;;6.43;100.00
3917;BME280;1973;50.518;7.318;2024-01-30T01:01:57;102163.09;;;6.43;100.00
3917;BME280;1973;50.518;7.318;2024-01-30T01:04:24;102180.19;;;6.45;100.00
3917;BME280;1973;50.518;7.318;2024-01-30T01:06:50;102177.59;;;6.43;100.00
3917;BME280;1973;50.518;7.318;2024-01-30T01:09:17;102173.31;;;6.41;100.00
3917;BME280;1973;50.518;7.318;2024-01-30T01:11:44;102186.28;;;6.39;100.00
3917;BME280;1973;50.518;7.318;2024-01-30T01:14:10;102180.28;;;6.35;100.00
3917;BME280;1973;50.518;7.318;2024-01-30T01:16:37;102173.38;;;6.31;100.00
3917;BME280;1973;50.518;7.318;2024-01-30T01:19:03;102178.44;;;6.26;100.00
3917;BME280;1973;50.518;7.318;2024-01-30T01:21:31;102171.56;;;6.22;100.00
3917;BME280;1973;50.518;7.318;2024-01-30T01:23:57;102178.22;;;6.19;100.00
3917;BME280;1973;50.518;7.318;2024-01-30T01:26:24;102171.88;;;6.19;100.00
3917;BME280;1973;50.518;7.318;2024-01-30T01:28:50;102177.47;;;6.17;100.00
3917;BME280;1973;50.518;7.318;2024-01-30T01:31:17;102176.47;;;6.18;100.00
3917;BME280;1973;50.518;7.318;2024-01-30T01:33:44;102180.22;;;6.17;100.00
3917;BME280;1973;50.518;7.318;2024-01-30T01:36:13;102173.34;;;6.13;100.00
3917;BME280;1973;50.518;7.318;2024-01-30T01:38:40;102171.22;;;6.07;100.00
3917;BME280;1973;50.518;7.318;2024-01-30T01:41:06;102176.31;;;6.02;100.00
3917;BME280;1973;50.518;7.318;2024-01-30T01:43:33;102176.88;;;5.96;100.00
3917;BME280;1973;50.518;7.318;2024-01-30T01:45:59;102175.63;;;5.91;100.00
3917;BME280;1973;50.518;7.318;2024-01-30T01:48:28;102181.53;;;5.86;100.00
3917;BME280;1973;50.518;7.318;2024-01-30T01:50:55;102172.03;;;5.80;100.00
3917;BME280;1973;50.518;7.318;2024-01-30T01:53:23;102167.75;;;5.78;100.00
3917;BME280;1973;50.518;7.318;2024-01-30T01:55:50;102166.31;;;5.74;100.00
3917;BME280;1973;50.518;7.318;2024-01-30T01:58:19;102173.09;;;5.70;100.00
3917;BME280;1973;50.518;7.318;2024-01-30T02:00:47;102170.66;;;5.67;100.00
3917;BME280;1973;50.518;7.318;2024-01-30T02:03:17;102172.69;;;5.65;100.00
3917;BME280;1973;50.518;7.318;2024-01-30T02:05:45;102170.25;;;5.62;100.00
3917;BME280;1973;50.518;7.318;2024-01-30T02:08:11;102166.94;;;5.58;100.00
3917;BME280;1973;50.518;7.318;2024-01-30T02:10:39;102169.84;;;5.57;100.00
3917;BME280;1973;50.518;7.318;2024-01-30T02:13:06;102179.22;;;5.54;100.00
3917;BME280;1973;50.518;7.318;2024-01-30T02:15:32;102179.34;;;5.53;100.00
3917;BME280;1973;50.518;7.318;2024-01-30T02:17:59;102172.88;;;5.54;100.00
3917;BME280;1973;50.518;7.318;2024-01-30T02:20:28;102165.38;;;5.56;100.00
3917;BME280;1973;50.518;7.318;2024-01-30T02:22:58;102170.53;;;5.59;100.00
3917;BME280;1973;50.518;7.318;2024-01-30T02:25:36;102167.50;;;5.62;100.00
3917;BME280;1973;50.518;7.318;2024-01-30T02:28:03;102160.34;;;5.61;100.00
3917;BME280;1973;50.518;7.318;2024-01-30T02:30:30;102164.78;;;5.62;100.00
3917;BME280;1973;50.518;7.318;2024-01-30T02:32:56;102159.47;;;5.60;100.00
3917;BME280;1973;50.518;7.318;2024-01-30T02:35:23;102160.66;;;5.58;100.00
3917;BME280;1973;50.518;7.318;2024-01-30T02:37:49;102159.06;;;5.55;100.00
3917;BME280;1973;50.518;7.318;2024-01-30T02:40:16;102156.63;;;5.52;100.00
3917;BME280;1973;50.518;7.318;2024-01-30T02:42:43;102164.13;;;5.50;100.00
3917;BME280;1973;50.518;7.318;2024-01-30T02:45:11;102163.56;;;5.47;100.00
3917;BME280;1973;50.518;7.318;2024-01-30T02:47:38;102164.69;;;5.44;100.00
3917;BME280;1973;50.518;7.318;2024-01-30T02:50:05;102158.69;;;5.40;100.00
3917;BME280;1973;50.518;7.318;2024-01-30T02:52:32;102161.56;;;5.39;100.00
3917;BME280;1973;50.518;7.318;2024-01-30T02:54:59;102157.97;;;5.38;100.00
3917;BME280;1973;50.518;7.318;2024-01-30T02:57:25;102161.84;;;5.36;100.00
3917;BME280;1973;50.518;7.318;2024-01-30T02:59:52;102157.56;;;5.33;100.00
3917;BME280;1973;50.518;7.318;2024-01-30T03:02:18;102158.84;;;5.29;100.00
3917;BME280;1973;50.518;7.318;2024-01-30T03:04:45;102154.38;;;5.28;100.00
3917;BME280;1973;50.518;7.318;2024-01-30T03:07:12;102149.97;;;5.27;100.00
3917;BME280;1973;50.518;7.318;2024-01-30T03:09:41;102143.78;;;5.25;100.00
3917;BME280;1973;50.518;7.318;2024-01-30T03:12:08;102141.34;;;5.22;100.00
3917;BME280;1973;50.518;7.318;2024-01-30T03:14:37;102145.94;;;5.22;100.00
3917;BME280;1973;50.518;7.318;2024-01-30T03:17:03;102146.81;;;5.22;100.00
3917;BME280;1973;50.518;7.318;2024-01-30T03:19:30;102146.66;;;5.24;100.00
3917;BME280;1973;50.518;7.318;2024-01-30T03:21:57;102148.53;;;5.23;100.00
3917;BME280;1973;50.518;7.318;2024-01-30T03:24:23;102144.06;;;5.22;100.00
3917;BME280;1973;50.518;7.318;2024-01-30T03:26:50;102145.94;;;5.22;100.00
3917;BME280;1973;50.518;7.318;2024-01-30T03:29:16;102136.88;;;5.21;100.00
3917;BME280;1973;50.518;7.318;2024-01-30T03:31:43;102137.63;;;5.23;100.00
3917;BME280;1973;50.518;7.318;2024-01-30T03:34:09;102138.47;;;5.24;100.00
3917;BME280;1973;50.518;7.318;2024-01-30T03:36:36;102131.00;;;5.26;100.00
3917;BME280;1973;50.518;7.318;2024-01-30T03:39:03;102129.81;;;5.28;100.00
3917;BME280;1973;50.518;7.318;2024-01-30T03:41:29;102135.28;;;5.28;100.00
3917;BME280;1973;50.518;7.318;2024-01-30T03:43:56;102135.16;;;5.30;100.00
3917;BME280;1973;50.518;7.318;2024-01-30T03:46:22;102132.28;;;5.31;100.00
3917;BME280;1973;50.518;7.318;2024-01-30T03:48:49;102126.50;;;5.34;100.00
3917;BME280;1973;50.518;7.318;2024-01-30T03:51:16;102131.69;;;5.37;100.00
3917;BME280;1973;50.518;7.318;2024-01-30T03:53:43;102130.69;;;5.38;100.00
3917;BME280;1973;50.518;7.318;2024-01-30T03:56:09;102123.19;;;5.40;100.00
3917;BME280;1973;50.518;7.318;2024-01-30T03:58:36;102132.22;;;5.41;100.00
3917;BME280;1973;50.518;7.318;2024-01-30T04:01:02;102129.63;;;5.39;100.00
3917;BME280;1973;50.518;7.318;2024-01-30T04:03:30;102138.88;;;5.38;100.00
3917;BME280;1973;50.518;7.318;2024-01-30T04:05:56;102131.13;;;5.34;100.00
3917;BME280;1973;50.518;7.318;2024-01-30T04:08:23;102123.78;;;5.34;100.00
3917;BME280;1973;50.518;7.318;2024-01-30T04:10:50;102127.81;;;5.30;100.00
3917;BME280;1973;50.518;7.318;2024-01-30T04:13:16;102124.22;;;5.30;100.00
3917;BME280;1973;50.518;7.318;2024-01-30T04:15:43;102127.94;;;5.29;100.00
3917;BME280;1973;50.518;7.318;2024-01-30T04:18:09;102126.25;;;5.28;100.00
3917;BME280;1973;50.518;7.318;2024-01-30T04:20:36;102126.53;;;5.25;100.00
3917;BME280;1973;50.518;7.318;2024-01-30T04:23:02;102125.69;;;5.24;100.00
3917;BME280;1973;50.518;7.318;2024-01-30T04:25:29;102123.97;;;5.23;100.00
3917;BME280;1973;50.518;7.318;2024-01-30T04:27:55;102125.28;;;5.19;100.00
3917;BME280;1973;50.518;7.318;2024-01-30T04:30:23;102130.03;;;5.17;100.00
3917;BME280;1973;50.518;7.318;2024-01-30T04:32:50;102128.59;;;5.13;100.00
3917;BME280;1973;50.518;7.318;2024-01-30T04:35:16;102130.59;;;5.11;100.00
3917;BME280;1973;50.518;7.318;2024-01-30T04:37:43;102123.72;;;5.07;100.00
3917;BME280;1973;50.518;7.318;2024-01-30T04:40:10;102121.28;;;5.04;100.00
3917;BME280;1973;50.518;7.318;2024-01-30T04:42:36;102118.84;;;5.01;100.00
3917;BME280;1973;50.518;7.318;2024-01-30T04:45:03;102123.31;;;5.02;100.00
3917;BME280;1973;50.518;7.318;2024-01-30T04:47:30;102121.41;;;5.03;100.00
3917;BME280;1973;50.518;7.318;2024-01-30T04:49:56;102124.00;;;5.04;100.00
3917;BME280;1973;50.518;7.318;2024-01-30T04:52:23;102125.75;;;5.05;100.00
3917;BME280;1973;50.518;7.318;2024-01-30T04:54:50;102119.41;;;5.05;100.00
3917;BME280;1973;50.518;7.318;2024-01-30T04:57:16;102111.09;;;5.06;100.00
3917;BME280;1973;50.518;7.318;2024-01-30T04:59:43;102112.50;;;5.10;100.00
3917;BME280;1973;50.518;7.318;2024-01-30T05:02:09;102103.00;;;5.14;100.00
3917;BME280;1973;50.518;7.318;2024-01-30T05:04:36;102105.16;;;5.20;100.00
3917;BME280;1973;50.518;7.318;2024-01-30T05:07:03;102111.00;;;5.25;100.00
3917;BME280;1973;50.518;7.318;2024-01-30T05:09:30;102104.97;;;5.31;100.00
3917;BME280;1973;50.518;7.318;2024-01-30T05:11:56;102104.66;;;5.34;100.00
3917;BME280;1973;50.518;7.318;2024-01-30T05:14:23;102107.22;;;5.36;100.00
3917;BME280;1973;50.518;7.318;2024-01-30T05:16:50;102106.97;;;5.39;100.00
3917;BME280;1973;50.518;7.318;2024-01-30T05:19:16;102116.72;;;5.42;100.00
3917;BME280;1973;50.518;7.318;2024-01-30T05:21:44;102115.84;;;5.41;100.00
3917;BME280;1973;50.518;7.318;2024-01-30T05:24:10;102107.53;;;5.43;100.00
3917;BME280;1973;50.518;7.318;2024-01-30T05:26:37;102113.84;;;5.43;100.00
3917;BME280;1973;50.518;7.318;2024-01-30T05:29:04;102111.81;;;5.45;100.00
3917;BME280;1973;50.518;7.318;2024-01-30T05:31:31;102117.13;;;5.47;100.00
3917;BME280;1973;50.518;7.318;2024-01-30T05:33:58;102116.84;;;5.50;100.00
3917;BME280;1973;50.518;7.318;2024-01-30T05:36:24;102124.00;;;5.51;100.00
3917;BME280;1973;50.518;7.318;2024-01-30T05:38:51;102118.25;;;5.54;100.00
3917;BME280;1973;50.518;7.318;2024-01-30T05:41:18;102115.53;;;5.54;100.00
3917;BME280;1973;50.518;7.318;2024-01-30T05:43:44;102113.34;;;5.57;100.00
3917;BME280;1973;50.518;7.318;2024-01-30T05:46:11;102114.34;;;5.56;100.00
3917;BME280;1973;50.518;7.318;2024-01-30T05:48:37;102116.22;;;5.56;100.00
3917;BME280;1973;50.518;7.318;2024-01-30T05:51:04;102113.34;;;5.57;100.00
3917;BME280;1973;50.518;7.318;2024-01-30T05:53:31;102109.75;;;5.57;100.00
3917;BME280;1973;50.518;7.318;2024-01-30T05:55:57;102114.50;;;5.55;100.00
3917;BME280;1973;50.518;7.318;2024-01-30T05:58:24;102118.38;;;5.52;100.00
3917;BME280;1973;50.518;7.318;2024-01-30T06:00:50;102127.91;;;5.48;100.00
3917;BME280;1973;50.518;7.318;2024-01-30T06:03:17;102116.56;;;5.43;100.00
3917;BME280;1973;50.518;7.318;2024-01-30T06:05:43;102121.44;;;5.39;100.00
3917;BME280;1973;50.518;7.318;2024-01-30T06:08:10;102119.50;;;5.32;100.00
3917;BME280;1973;50.518;7.318;2024-01-30T06:10:37;102122.50;;;5.29;100.00
3917;BME280;1973;50.518;7.318;2024-01-30T06:13:03;102116.34;;;5.27;100.00
3917;BME280;1973;50.518;7.318;2024-01-30T06:15:30;102119.69;;;5.21;100.00
3917;BME280;1973;50.518;7.318;2024-01-30T06:17:56;102118.06;;;5.18;100.00
3917;BME280;1973;50.518;7.318;2024-01-30T06:20:23;102109.19;;;5.16;100.00
3917;BME280;1973;50.518;7.318;2024-01-30T06:22:50;102116.81;;;5.13;100.00
3917;BME280;1973;50.518;7.318;2024-01-30T06:25:16;102121.84;;;5.08;100.00
3917;BME280;1973;50.518;7.318;2024-01-30T06:27:43;102110.38;;;5.04;100.00
3917;BME280;1973;50.518;7.318;2024-01-30T06:30:10;102113.41;;;5.01;100.00
3917;BME280;1973;50.518;7.318;2024-01-30T06:32:37;102106.50;;;4.97;100.00
3917;BME280;1973;50.518;7.318;2024-01-30T06:35:05;102111.25;;;4.95;100.00
3917;BME280;1973;50.518;7.318;2024-01-30T06:37:32;102118.03;;;4.91;100.00
3917;BME280;1973;50.518;7.318;2024-01-30T06:39:59;102116.13;;;4.91;100.00
3917;BME280;1973;50.518;7.318;2024-01-30T06:42:25;102118.28;;;4.88;100.00
3917;BME280;1973;50.518;7.318;2024-01-30T06:44:52;102124.78;;;4.87;100.00
3917;BME280;1973;50.518;7.318;2024-01-30T06:47:18;102120.31;;;4.86;100.00
3917;BME280;1973;50.518;7.318;2024-01-30T06:49:45;102128.38;;;4.87;100.00
3917;BME280;1973;50.518;7.318;2024-01-30T06:52:12;102130.94;;;4.89;100.00
3917;BME280;1973;50.518;7.318;2024-01-30T06:54:38;102128.94;;;4.91;100.00
3917;BME280;1973;50.518;7.318;2024-01-30T06:57:06;102129.75;;;4.91;100.00
3917;BME280;1973;50.518;7.318;2024-01-30T06:59:38;102130.38;;;4.95;100.00
3917;BME280;1973;50.518;7.318;2024-01-30T07:02:11;102140.97;;;4.98;100.00
3917;BME280;1973;50.518;7.318;2024-01-30T07:04:38;102135.22;;;5.01;100.00
3917;BME280;1973;50.518;7.318;2024-01-30T07:07:11;102133.94;;;5.05;100.00
3917;BME280;1973;50.518;7.318;2024-01-30T07:09:39;102127.31;;;5.08;100.00
3917;BME280;1973;50.518;7.318;2024-01-30T07:12:06;102121.72;;;5.09;100.00
3917;BME280;1973;50.518;7.318;2024-01-30T07:14:33;102125.13;;;5.11;100.00
3917;BME280;1973;50.518;7.318;2024-01-30T07:17:00;102118.50;;;5.14;100.00
3917;BME280;1973;50.518;7.318;2024-01-30T07:19:27;102122.28;;;5.13;100.00
3917;BME280;1973;50.518;7.318;2024-01-30T07:21:53;102125.88;;;5.13;100.00
3917;BME280;1973;50.518;7.318;2024-01-30T07:24:20;102126.00;;;5.12;100.00
3917;BME280;1973;50.518;7.318;2024-01-30T07:26:46;102128.88;;;5.10;100.00
3917;BME280;1973;50.518;7.318;2024-01-30T07:29:13;102121.72;;;5.09;100.00
3917;BME280;1973;50.518;7.318;2024-01-30T07:31:39;102124.13;;;5.12;100.00
3917;BME280;1973;50.518;7.318;2024-01-30T07:34:06;102118.50;;;5.14;100.00
3917;BME280;1973;50.518;7.318;2024-01-30T07:36:33;102127.31;;;5.17;100.00
3917;BME280;1973;50.518;7.318;2024-01-30T07:39:00;102131.44;;;5.21;100.00
3917;BME280;1973;50.518;7.318;2024-01-30T07:41:26;102131.16;;;5.24;100.00
3917;BME280;1973;50.518;7.318;2024-01-30T07:43:53;102133.59;;;5.27;100.00
3917;BME280;1973;50.518;7.318;2024-01-30T07:46:20;102131.13;;;5.34;100.00
3917;BME280;1973;50.518;7.318;2024-01-30T07:48:46;102135.97;;;5.40;100.00
3917;BME280;1973;50.518;7.318;2024-01-30T07:51:13;102129.38;;;5.43;100.00
3917;BME280;1973;50.518;7.318;2024-01-30T07:53:40;102135.22;;;5.48;100.00
3917;BME280;1973;50.518;7.318;2024-01-30T07:56:07;102138.25;;;5.54;100.00
3917;BME280;1973;50.518;7.318;2024-01-30T07:58:34;102133.03;;;5.61;100.00
3917;BME280;1973;50.518;7.318;2024-01-30T08:01:01;102139.75;;;5.66;100.00
3917;BME280;1973;50.518;7.318;2024-01-30T08:03:27;102138.31;;;5.72;100.00
3917;BME280;1973;50.518;7.318;2024-01-30T08:05:54;102138.13;;;5.73;100.00
3917;BME280;1973;50.518;7.318;2024-01-30T08:08:21;102146.19;;;5.75;100.00
3917;BME280;1973;50.518;7.318;2024-01-30T08:10:48;102147.19;;;5.74;100.00
3917;BME280;1973;50.518;7.318;2024-01-30T08:13:16;102150.47;;;5.77;100.00
3917;BME280;1973;50.518;7.318;2024-01-30T08:15:42;102158.38;;;5.80;100.00
3917;BME280;1973;50.518;7.318;2024-01-30T08:18:09;102156.50;;;5.81;100.00
3917;BME280;1973;50.518;7.318;2024-01-30T08:20:36;102157.38;;;5.81;100.00
3917;BME280;1973;50.518;7.318;2024-01-30T08:23:03;102163.00;;;5.80;100.00
3917;BME280;1973;50.518;7.318;2024-01-30T08:25:29;102158.22;;;5.82;100.00
3917;BME280;1973;50.518;7.318;2024-01-30T08:27:56;102157.06;;;5.84;100.00
3917;BME280;1973;50.518;7.318;2024-01-30T08:30:24;102155.94;;;5.87;100.00
3917;BME280;1973;50.518;7.318;2024-01-30T08:32:51;102158.69;;;5.87;100.00
3917;BME280;1973;50.518;7.318;2024-01-30T08:35:18;102149.16;;;5.91;100.00
3917;BME280;1973;50.518;7.318;2024-01-30T08:37:45;102146.13;;;5.94;100.00
3917;BME280;1973;50.518;7.318;2024-01-30T08:40:11;102146.38;;;6.01;100.00
3917;BME280;1973;50.518;7.318;2024-01-30T08:42:38;102140.28;;;6.07;100.00
3917;BME280;1973;50.518;7.318;2024-01-30T08:45:05;102137.66;;;6.15;100.00
3917;BME280;1973;50.518;7.318;2024-01-30T08:47:32;102131.41;;;6.22;100.00
3917;BME280;1973;50.518;7.318;2024-01-30T08:49:59;102122.28;;;6.31;100.00
3917;BME280;1973;50.518;7.318;2024-01-30T08:52:26;102126.81;;;6.41;100.00
3917;BME280;1973;50.518;7.318;2024-01-30T08:54:53;102124.00;;;6.50;100.00
3917;BME280;1973;50.518;7.318;2024-01-30T08:57:20;102117.03;;;6.56;100.00
3917;BME280;1973;50.518;7.318;2024-01-30T08:59:47;102121.59;;;6.65;100.00
3917;BME280;1973;50.518;7.318;2024-01-30T09:02:14;102131.41;;;6.75;100.00
3917;BME280;1973;50.518;7.318;2024-01-30T09:04:42;102119.69;;;6.83;100.00
3917;BME280;1973;50.518;7.318;2024-01-30T09:07:09;102126.25;;;6.90;100.00
3917;BME280;1973;50.518;7.318;2024-01-30T09:09:38;102130.75;;;6.99;100.00
3917;BME280;1973;50.518;7.318;2024-01-30T09:12:06;102127.75;;;7.10;100.00
3917;BME280;1973;50.518;7.318;2024-01-30T09:14:36;102133.28;;;7.18;100.00
3917;BME280;1973;50.518;7.318;2024-01-30T09:17:03;102129.59;;;7.27;100.00
3917;BME280;1973;50.518;7.318;2024-01-30T09:19:30;102132.88;;;7.31;100.00
3917;BME280;1973;50.518;7.318;2024-01-30T09:21:57;102142.63;;;7.33;100.00
3917;BME280;1973;50.518;7.318;2024-01-30T09:24:25;102144.19;;;7.36;100.00
3917;BME280;1973;50.518;7.318;2024-01-30T09:26:51;102148.84;;;7.44;100.00
3917;BME280;1973;50.518;7.318;2024-01-30T09:29:18;102160.53;;;7.46;100.00
3917;BME280;1973;50.518;7.318;2024-01-30T09:31:45;102154.72;;;7.49;100.00
3917;BME280;1973;50.518;7.318;2024-01-30T09:34:13;102167.75;;;7.55;100.00
3917;BME280;1973;50.518;7.318;2024-01-30T09:36:39;102169.47;;;7.56;100.00
3917;BME280;1973;50.518;7.318;2024-01-30T09:39:06;102170.03;;;7.59;100.00
3917;BME280;1973;50.518;7.318;2024-01-30T09:41:49;102160.13;;;7.66;100.00
3917;BME280;1973;50.518;7.318;2024-01-30T09:44:20;102166.66;;;7.73;100.00
3917;BME280;1973;50.518;7.318;2024-01-30T09:46:47;102171.53;;;7.79;100.00
3917;BME280;1973;50.518;7.318;2024-01-30T09:49:17;102162.13;;;7.90;100.00
3917;BME280;1973;50.518;7.318;2024-01-30T09:51:48;102160.78;;;8.02;100.00
3917;BME280;1973;50.518;7.318;2024-01-30T09:54:15;102160.16;;;8.08;100.00
3917;BME280;1973;50.518;7.318;2024-01-30T09:56:42;102160.88;;;8.18;100.00
3917;BME280;1973;50.518;7.318;2024-01-30T09:59:09;102163.34;;;8.29;100.00
3917;BME280;1973;50.518;7.318;2024-01-30T10:01:36;102162.00;;;8.42;100.00
3917;BME280;1973;50.518;7.318;2024-01-30T10:04:04;102165.47;;;8.60;100.00
3917;BME280;1973;50.518;7.318;2024-01-30T10:06:31;102157.59;;;8.81;100.00
3917;BME280;1973;50.518;7.318;2024-01-30T10:08:57;102161.38;;;8.96;100.00
3917;BME280;1973;50.518;7.318;2024-01-30T10:11:24;102165.16;;;9.03;100.00
3917;BME280;1973;50.518;7.318;2024-01-30T10:13:54;102176.50;;;9.08;100.00
3917;BME280;1973;50.518;7.318;2024-01-30T10:16:20;102179.03;;;9.02;100.00
3917;BME280;1973;50.518;7.318;2024-01-30T10:18:47;102168.25;;;9.00;100.00
3917;BME280;1973;50.518;7.318;2024-01-30T10:21:14;102176.13;;;9.03;100.00
3917;BME280;1973;50.518;7.318;2024-01-30T10:23:40;102178.53;;;9.06;100.00
3917;BME280;1973;50.518;7.318;2024-01-30T10:26:07;102178.88;;;9.03;100.00
3917;BME280;1973;50.518;7.318;2024-01-30T10:28:34;102177.00;;;8.96;100.00
3917;BME280;1973;50.518;7.318;2024-01-30T10:31:01;102169.63;;;8.96;100.00
3917;BME280;1973;50.518;7.318;2024-01-30T10:33:32;102168.94;;;8.94;100.00
3917;BME280;1973;50.518;7.318;2024-01-30T10:36:04;102179.59;;;8.97;100.00
3917;BME280;1973;50.518;7.318;2024-01-30T10:38:32;102183.34;;;9.04;100.00
3917;BME280;1973;50.518;7.318;2024-01-30T10:41:00;102174.78;;;9.15;100.00
3917;BME280;1973;50.518;7.318;2024-01-30T10:43:40;102170.28;;;9.31;100.00
3917;BME280;1973;50.518;7.318;2024-01-30T10:46:10;102168.88;;;9.43;100.00
3917;BME280;1973;50.518;7.318;2024-01-30T10:48:42;102173.34;;;9.60;100.00
3917;BME280;1973;50.518;7.318;2024-01-30T10:51:11;102176.38;;;9.73;100.00
3917;BME280;1973;50.518;7.318;2024-01-30T10:53:39;102174.25;;;9.91;100.00
3917;BME280;1973;50.518;7.318;2024-01-30T10:56:06;102167.56;;;9.94;100.00
3917;BME280;1973;50.518;7.318;2024-01-30T10:58:34;102185.47;;;9.82;100.00
3917;BME280;1973;50.518;7.318;2024-01-30T11:01:01;102178.97;;;9.74;100.00
3917;BME280;1973;50.518;7.318;2024-01-30T11:03:28;102176.91;;;9.68;100.00
3917;BME280;1973;50.518;7.318;2024-01-30T11:05:59;102175.88;;;9.61;100.00
3917;BME280;1973;50.518;7.318;2024-01-30T11:08:26;102173.69;;;9.57;100.00
3917;BME280;1973;50.518;7.318;2024-01-30T11:10:58;102182.09;;;9.55;100.00
3917;BME280;1973;50.518;7.318;2024-01-30T11:13:31;102182.97;;;9.56;100.00
3917;BME280;1973;50.518;7.318;2024-01-30T11:16:05;102172.28;;;9.61;100.00
3917;BME280;1973;50.518;7.318;2024-01-30T11:18:35;102160.94;;;9.64;100.00
3917;BME280;1973;50.518;7.318;2024-01-30T11:21:04;102154.38;;;9.73;100.00
3917;BME280;1973;50.518;7.318;2024-01-30T11:23:33;102157.78;;;9.83;100.00
3917;BME280;1973;50.518;7.318;2024-01-30T11:26:00;102141.06;;;9.93;100.00
3917;BME280;1973;50.518;7.318;2024-01-30T11:28:32;102138.09;;;10.02;100.00
3917;BME280;1973;50.518;7.318;2024-01-30T11:31:06;102133.97;;;10.06;100.00
3917;BME280;1973;50.518;7.318;2024-01-30T11:33:33;102123.66;;;10.08;100.00
3917;BME280;1973;50.518;7.318;2024-01-30T11:36:01;102125.91;;;10.05;100.00
3917;BME280;1973;50.518;7.318;2024-01-30T11:38:28;102135.38;;;9.94;100.00
3917;BME280;1973;50.518;7.318;2024-01-30T11:40:55;102110.00;;;9.84;100.00
3917;BME280;1973;50.518;7.318;2024-01-30T11:43:25;102119.63;;;9.80;100.00
3917;BME280;1973;50.518;7.318;2024-01-30T11:45:52;102123.47;;;9.71;100.00
3917;BME280;1973;50.518;7.318;2024-01-30T11:48:19;102132.06;;;9.68;100.00
3917;BME280;1973;50.518;7.318;2024-01-30T11:50:46;102136.00;;;9.65;100.00
3917;BME280;1973;50.518;7.318;2024-01-30T11:53:12;102128.47;;;9.59;100.00
3917;BME280;1973;50.518;7.318;2024-01-30T11:55:39;102128.63;;;9.58;100.00
3917;BME280;1973;50.518;7.318;2024-01-30T11:58:06;102120.09;;;9.53;100.00
3917;BME280;1973;50.518;7.318;2024-01-30T12:00:33;102113.38;;;9.47;100.00
3917;BME280;1973;50.518;7.318;2024-01-30T12:03:01;102113.22;;;9.49;100.00
3917;BME280;1973;50.518;7.318;2024-01-30T12:05:28;102120.41;;;9.50;100.00
3917;BME280;1973;50.518;7.318;2024-01-30T12:07:56;102134.16;;;9.50;100.00
3917;BME280;1973;50.518;7.318;2024-01-30T12:10:26;102118.00;;;9.55;100.00
3917;BME280;1973;50.518;7.318;2024-01-30T12:12:54;102115.59;;;9.60;100.00
3917;BME280;1973;50.518;7.318;2024-01-30T12:15:21;102120.38;;;9.66;100.00
3917;BME280;1973;50.518;7.318;2024-01-30T12:17:48;102110.06;;;9.68;100.00
3917;BME280;1973;50.518;7.318;2024-01-30T12:20:18;102108.66;;;9.72;100.00
3917;BME280;1973;50.518;7.318;2024-01-30T12:22:47;102114.31;;;9.78;100.00
3917;BME280;1973;50.518;7.318;2024-01-30T12:25:19;102122.00;;;9.83;100.00
3917;BME280;1973;50.518;7.318;2024-01-30T12:27:48;102118.56;;;9.89;100.00
3917;BME280;1973;50.518;7.318;2024-01-30T12:30:20;102118.88;;;9.94;100.00
3917;BME280;1973;50.518;7.318;2024-01-30T12:32:50;102114.41;;;10.01;100.00
3917;BME280;1973;50.518;7.318;2024-01-30T12:35:19;102106.81;;;10.03;100.00
3917;BME280;1973;50.518;7.318;2024-01-30T12:37:47;102109.38;;;10.05;100.00
3917;BME280;1973;50.518;7.318;2024-01-30T12:40:14;102099.72;;;10.09;100.00
3917;BME280;1973;50.518;7.318;2024-01-30T12:42:42;102104.00;;;10.11;100.00
3917;BME280;1973;50.518;7.318;2024-01-30T12:45:09;102105.91;;;10.11;100.00
3917;BME280;1973;50.518;7.318;2024-01-30T12:47:36;102103.69;;;10.14;100.00
3917;BME280;1973;50.518;7.318;2024-01-30T12:50:03;102103.81;;;10.13;100.00
3917;BME280;1973;50.518;7.318;2024-01-30T12:52:30;102103.31;;;10.17;100.00
3917;BME280;1973;50.518;7.318;2024-01-30T12:54:57;102104.31;;;10.24;100.00
3917;BME280;1973;50.518;7.318;2024-01-30T12:57:24;102097.59;;;10.27;100.00
3917;BME280;1973;50.518;7.318;2024-01-30T12:59:51;102104.44;;;10.31;100.00
3917;BME280;1973;50.518;7.318;2024-01-30T13:02:18;102099.44;;;10.35;100.00
3917;BME280;1973;50.518;7.318;2024-01-30T13:04:44;102090.13;;;10.36;100.00
3917;BME280;1973;50.518;7.318;2024-01-30T13:07:15;102090.63;;;10.39;100.00
3917;BME280;1973;50.518;7.318;2024-01-30T13:09:42;102095.41;;;10.45;100.00